Airfield :
LOGIN :

Register | Disclaimer

   EN    FR    IT 

 










Legend :    VFR   Marginal VFR   IFR   Intensive IFR   Very Intensive IFR
Visi :
Ceiling :
>= 8 km
>= 3000ft
5 to 8 km
1000 to 3000 ft
1500m to 5 km
500 to 1000 ft
800 to 1500m
200 to 500 ft
< 800m
< 200 ft
Symbols :   Thunderstorms  Fog  Heavy snow  Heavy precipitations  Wind > 20 kt
SIGMETs :     Misc.  Thunderstorms  Icing  Turbulence  Mountain Waves  Volcanic Ashes







- Airport Elevation : 863 ft
- IATA code : ZAZ


LEZG - Zaragoza Aragon

CURRENT METAR :
  • 200130Z 28009KT CAVOK 13/06 Q1022

EXPIRED METARs :
  • 200100Z 26006KT CAVOK 13/06 Q1022
  • 200030Z 28009KT CAVOK 13/06 Q1023
  • 200000Z 28012KT CAVOK 14/07 Q1022
  • 192330Z 28017KT CAVOK 15/07 Q1022

TAF TAF LEZG
Valid from the 20 at 00:00 until the 21 at 00:00 UTC


192300Z 2000/2024 30013KT 9999 FEW040 TX26/2013Z TN10/2006Z
BECMG 2007/2009 VRB03KT
BECMG 2015/2018 10006KT
BECMG 2018/2021 VRB03KT
No reported NOTAMs for that airfield.



MET'MAP, your aeronautical weather chart ! - Copyright ORBIFLY December 2007 - Disclaimer

ORBIFLY MET'MAP TEAM :

Programming & Development : Alexandra Zaïnal
Concept & Development : Baudouin d'Aumeries
Co-Development & Prog : Marc-Olivier Méhu
Technical & hardware support : Manuel Goepfert

Contact : metmap@orbifly.com




SOURCES & CREDITS :

   NOAA